createdAt,value
2016-10-08T00:04:02.771Z,1015.75
2016-10-08T00:08:59.682Z,1015.80
2016-10-08T00:13:56.480Z,1015.71
2016-10-08T00:18:52.831Z,1015.85
2016-10-08T00:23:52.064Z,1015.99
2016-10-08T00:28:47.796Z,1015.83
2016-10-08T00:33:45.199Z,1015.85
2016-10-08T00:38:41.466Z,1015.86
2016-10-08T00:43:37.870Z,1015.93
2016-10-08T00:48:37.403Z,1015.94
2016-10-08T00:53:33.348Z,1015.94
2016-10-08T00:58:29.805Z,1015.91
2016-10-08T01:03:26.125Z,1015.96
2016-10-08T01:08:23.133Z,1015.88
2016-10-08T01:13:19.674Z,1015.98
2016-10-08T01:18:16.391Z,1015.88
2016-10-08T01:23:13.863Z,1015.96
2016-10-08T01:28:10.157Z,1015.92
2016-10-08T01:33:06.407Z,1015.91
2016-10-08T01:38:08.603Z,1015.87
2016-10-08T01:43:03.755Z,1015.76
2016-10-08T01:48:00.053Z,1015.86
2016-10-08T01:52:56.549Z,1015.92
2016-10-08T01:57:52.939Z,1015.85
2016-10-08T02:02:49.637Z,1015.85
2016-10-08T02:07:46.155Z,1015.84
2016-10-08T02:12:42.679Z,1015.89
2016-10-08T02:17:39.982Z,1015.82
2016-10-08T02:22:36.637Z,1015.90
2016-10-08T02:27:32.792Z,1015.86
2016-10-08T02:32:29.383Z,1015.82
2016-10-08T02:37:25.928Z,1015.82
2016-10-08T02:42:22.388Z,1015.87
2016-10-08T02:47:18.796Z,1015.80
2016-10-08T02:52:14.884Z,1015.78
2016-10-08T02:57:11.332Z,1015.83
2016-10-08T03:02:08.134Z,1015.82
2016-10-08T03:07:04.500Z,1015.78
2016-10-08T03:12:01.071Z,1015.87
2016-10-08T03:16:57.470Z,1015.90
2016-10-08T03:21:53.959Z,1015.85
2016-10-08T03:26:50.813Z,1015.95
2016-10-08T03:31:46.995Z,1016.00
2016-10-08T03:36:43.635Z,1016.01
2016-10-08T03:41:40.180Z,1016.00
2016-10-08T03:46:36.646Z,1016.07
2016-10-08T03:51:33.024Z,1016.12
2016-10-08T03:56:29.688Z,1016.12
2016-10-08T04:01:26.020Z,1016.11
2016-10-08T04:06:22.435Z,1016.12
2016-10-08T04:11:18.806Z,1016.15
2016-10-08T04:16:16.599Z,1016.18
2016-10-08T04:21:12.666Z,1016.10
2016-10-08T04:26:09.865Z,1016.14
2016-10-08T04:31:06.156Z,1016.11
2016-10-08T04:36:02.669Z,1016.12
2016-10-08T04:40:59.007Z,1016.20
2016-10-08T04:45:55.459Z,1016.25
2016-10-08T04:50:51.908Z,1016.33
2016-10-08T04:55:47.809Z,1016.35
2016-10-08T05:00:44.348Z,1016.45
2016-10-08T05:05:40.757Z,1016.50
2016-10-08T05:10:37.137Z,1016.50
2016-10-08T05:15:33.677Z,1016.51
2016-10-08T05:20:30.394Z,1016.50
2016-10-08T05:25:26.398Z,1016.63
2016-10-08T05:30:22.853Z,1016.67
2016-10-08T05:35:19.090Z,1016.74
2016-10-08T05:40:15.991Z,1016.69
2016-10-08T05:45:12.413Z,1016.76
2016-10-08T05:50:08.894Z,1016.73
2016-10-08T05:55:07.360Z,1016.81
2016-10-08T06:00:03.416Z,1016.87
2016-10-08T06:04:59.827Z,1016.86
2016-10-08T06:09:56.234Z,1016.77
2016-10-08T06:14:52.608Z,1016.66
2016-10-08T06:19:49.438Z,1016.67
2016-10-08T06:24:45.937Z,1016.70
2016-10-08T06:29:42.719Z,1016.78
2016-10-08T06:34:39.349Z,1016.84
2016-10-08T06:39:35.797Z,1016.85
2016-10-08T06:44:32.150Z,1016.79
2016-10-08T06:49:28.418Z,1016.83
2016-10-08T06:54:26.142Z,1016.87
2016-10-08T06:59:22.735Z,1016.91
2016-10-08T07:04:19.059Z,1017.00
2016-10-08T07:09:16.133Z,1016.98
2016-10-08T07:14:12.385Z,1017.02
2016-10-08T07:19:08.872Z,1017.13
2016-10-08T07:24:05.800Z,1017.12
2016-10-08T07:29:02.442Z,1017.16
2016-10-08T07:33:59.211Z,1017.18
2016-10-08T07:38:58.152Z,1017.25
2016-10-08T07:43:53.719Z,1017.27
2016-10-08T07:48:50.483Z,1017.31
2016-10-08T07:53:48.484Z,1017.32
2016-10-08T07:58:44.774Z,1017.32
2016-10-08T08:03:41.352Z,1017.32
2016-10-08T08:08:38.449Z,1017.36
2016-10-08T08:13:36.150Z,1017.39
2016-10-08T08:18:35.026Z,1017.36
2016-10-08T08:23:31.598Z,1017.36
2016-10-08T08:28:29.337Z,1017.32
2016-10-08T08:33:25.658Z,1017.41
2016-10-08T08:38:22.296Z,1017.34
2016-10-08T08:43:18.348Z,1017.42
2016-10-08T08:48:16.024Z,1017.33
2016-10-08T08:53:12.615Z,1017.33
2016-10-08T08:58:09.324Z,1017.36
2016-10-08T09:03:05.989Z,1017.25
2016-10-08T09:08:03.091Z,1017.32
2016-10-08T09:12:59.918Z,1017.35
2016-10-08T09:17:56.837Z,1017.32
2016-10-08T09:22:53.665Z,1017.46
2016-10-08T09:27:50.246Z,1017.47
2016-10-08T09:32:46.426Z,1017.54
2016-10-08T09:37:43.201Z,1017.46
2016-10-08T09:42:40.151Z,1017.55
2016-10-08T09:47:36.858Z,1017.69
2016-10-08T09:52:33.472Z,1017.51
2016-10-08T09:57:30.076Z,1017.56
2016-10-08T10:02:26.855Z,1017.54
2016-10-08T10:07:24.021Z,1017.53
2016-10-08T10:12:20.751Z,1017.54
2016-10-08T10:17:18.768Z,1017.57
2016-10-08T10:22:15.710Z,1017.65
2016-10-08T10:27:13.075Z,1017.59
2016-10-08T10:32:09.636Z,1017.63
2016-10-08T10:37:06.766Z,1017.81
2016-10-08T10:42:03.647Z,1017.78
2016-10-08T10:47:00.521Z,1017.84
2016-10-08T10:51:57.753Z,1017.76
2016-10-08T10:56:53.361Z,1017.80
2016-10-08T11:01:50.945Z,1017.91
2016-10-08T11:06:48.315Z,1017.81
2016-10-08T11:11:46.627Z,1017.73
2016-10-08T11:16:43.384Z,1017.75
2016-10-08T11:21:40.577Z,1017.72
2016-10-08T11:26:36.030Z,1017.70
2016-10-08T11:31:32.270Z,1017.74
2016-10-08T11:36:28.725Z,1017.70
2016-10-08T11:41:29.520Z,1017.78
2016-10-08T11:46:24.994Z,1017.71
2016-10-08T11:51:22.566Z,1017.63
2016-10-08T11:56:19.061Z,1017.55
2016-10-08T12:01:15.243Z,1017.69
2016-10-08T12:06:11.279Z,1017.76
2016-10-08T12:11:07.335Z,1017.84
2016-10-08T12:16:04.015Z,1017.87
2016-10-08T12:21:00.731Z,1017.77
2016-10-08T12:25:56.951Z,1017.84
2016-10-08T12:30:53.182Z,1017.63
2016-10-08T12:35:49.624Z,1017.63
2016-10-08T12:40:45.995Z,1017.65
2016-10-08T12:45:43.641Z,1017.63
2016-10-08T12:50:40.160Z,1017.65
2016-10-08T12:55:36.534Z,1017.66
2016-10-08T13:00:33.242Z,1017.51
2016-10-08T13:05:30.041Z,1017.51
2016-10-08T13:10:26.620Z,1017.67
2016-10-08T13:15:23.728Z,1017.78
2016-10-08T13:20:20.338Z,1017.80
2016-10-08T13:25:16.950Z,1017.78
2016-10-08T13:30:13.427Z,1017.80
2016-10-08T13:35:10.328Z,1017.72
2016-10-08T13:40:07.042Z,1017.74
2016-10-08T13:45:04.262Z,1017.78
2016-10-08T13:50:01.762Z,1017.69
2016-10-08T13:54:59.285Z,1017.58
2016-10-08T13:59:56.361Z,1017.54
2016-10-08T14:04:52.770Z,1017.58
2016-10-08T14:09:50.801Z,1017.52
2016-10-08T14:14:46.622Z,1017.59
2016-10-08T14:19:42.975Z,1017.60
2016-10-08T14:24:39.684Z,1017.70
2016-10-08T14:29:36.374Z,1017.62
2016-10-08T14:34:32.506Z,1017.70
2016-10-08T14:39:29.940Z,1017.68
2016-10-08T14:44:26.514Z,1017.59
2016-10-08T14:49:22.862Z,1017.62
2016-10-08T14:54:20.493Z,1017.67
2016-10-08T14:59:17.834Z,1017.59
2016-10-08T15:04:14.496Z,1017.69
2016-10-08T15:09:11.945Z,1017.60
2016-10-08T15:14:08.318Z,1017.60
2016-10-08T15:19:05.045Z,1017.63
2016-10-08T15:24:02.319Z,1017.71
2016-10-08T15:28:59.085Z,1017.78
2016-10-08T15:38:57.073Z,1017.68
2016-10-08T15:43:53.460Z,1017.75
2016-10-08T15:48:51.034Z,1017.68
2016-10-08T15:53:47.379Z,1017.71
2016-10-08T15:58:43.858Z,1017.75
2016-10-08T16:03:40.445Z,1017.75
2016-10-08T16:08:37.252Z,1017.79
2016-10-08T16:13:33.830Z,1017.75
2016-10-08T16:18:30.327Z,1017.87
2016-10-08T16:23:26.750Z,1017.90
2016-10-08T16:28:23.472Z,1017.92
2016-10-08T16:33:19.922Z,1018.02
2016-10-08T16:38:16.358Z,1017.95
2016-10-08T16:43:12.705Z,1017.96
2016-10-08T16:48:09.154Z,1018.05
2016-10-08T16:53:05.634Z,1018.08
2016-10-08T16:58:02.155Z,1018.15
2016-10-08T17:02:58.564Z,1018.17
2016-10-08T17:07:54.907Z,1018.22
2016-10-08T17:12:51.745Z,1018.16
2016-10-08T17:17:48.839Z,1018.30
2016-10-08T17:22:45.604Z,1018.18
2016-10-08T17:27:41.857Z,1018.14
2016-10-08T17:32:38.965Z,1018.28
2016-10-08T17:37:35.563Z,1018.34
2016-10-08T17:42:32.683Z,1018.31
2016-10-08T17:47:29.310Z,1018.41
2016-10-08T17:52:26.645Z,1018.38
2016-10-08T17:57:22.494Z,1018.45
2016-10-08T18:02:19.256Z,1018.54
2016-10-08T18:07:15.619Z,1018.59
2016-10-08T18:12:12.050Z,1018.69
2016-10-08T18:17:08.421Z,1018.65
2016-10-08T18:22:04.904Z,1018.62
2016-10-08T18:27:01.382Z,1018.63
2016-10-08T18:31:57.764Z,1018.76
2016-10-08T18:36:54.227Z,1018.70
2016-10-08T18:41:50.749Z,1018.70
2016-10-08T18:46:46.839Z,1018.79
2016-10-08T18:51:43.695Z,1018.66
2016-10-08T18:56:40.380Z,1018.65
2016-10-08T19:01:36.961Z,1018.77
2016-10-08T19:06:34.262Z,1018.70
2016-10-08T19:11:30.239Z,1018.77
2016-10-08T19:16:26.788Z,1018.82
2016-10-08T19:21:23.411Z,1018.73
2016-10-08T19:26:20.982Z,1018.65
2016-10-08T19:31:17.110Z,1018.78
2016-10-08T19:36:13.576Z,1018.91
2016-10-08T19:41:10.084Z,1018.88
2016-10-08T19:46:06.700Z,1018.92
2016-10-08T19:51:02.979Z,1018.92
2016-10-08T19:55:59.482Z,1018.97
2016-10-08T20:00:56.012Z,1018.91
2016-10-08T20:05:52.232Z,1019.05
2016-10-08T20:10:48.558Z,1018.97
2016-10-08T20:15:45.033Z,1019.05
2016-10-08T20:20:41.375Z,1019.09
2016-10-08T20:25:38.025Z,1019.10
2016-10-08T20:30:34.534Z,1019.11
2016-10-08T20:35:30.998Z,1019.22
2016-10-08T20:40:27.342Z,1019.28
2016-10-08T20:45:24.133Z,1019.21
2016-10-08T20:50:20.542Z,1019.24
2016-10-08T20:55:17.783Z,1019.27
2016-10-08T21:00:14.060Z,1019.24
2016-10-08T21:05:10.721Z,1019.24
2016-10-08T21:10:07.054Z,1019.30
2016-10-08T21:15:03.505Z,1019.28
2016-10-08T21:20:00.222Z,1019.34
2016-10-08T21:24:56.773Z,1019.31
2016-10-08T21:29:53.190Z,1019.31
2016-10-08T21:34:50.016Z,1019.22
2016-10-08T21:39:46.485Z,1019.22
2016-10-08T21:44:42.995Z,1019.28
2016-10-08T21:49:39.577Z,1019.21
2016-10-08T21:54:35.943Z,1019.22
2016-10-08T21:59:32.666Z,1019.28
2016-10-08T22:04:29.144Z,1019.27
2016-10-08T22:09:25.639Z,1019.26
2016-10-08T22:14:22.354Z,1019.18
2016-10-08T22:19:18.756Z,1019.18
2016-10-08T22:24:15.028Z,1019.20
2016-10-08T22:29:11.687Z,1019.09
2016-10-08T22:34:08.124Z,1019.17
2016-10-08T22:39:04.611Z,1019.11
2016-10-08T22:44:01.069Z,1019.19
2016-10-08T22:48:57.431Z,1019.14
2016-10-08T22:53:53.878Z,1019.10
2016-10-08T22:58:50.282Z,1019.15
2016-10-08T23:03:46.864Z,1019.22
2016-10-08T23:08:43.225Z,1019.25
2016-10-08T23:13:39.278Z,1019.14
2016-10-08T23:18:35.773Z,1019.22
2016-10-08T23:23:32.341Z,1019.14
2016-10-08T23:28:28.762Z,1019.13
2016-10-08T23:33:25.392Z,1019.17
2016-10-08T23:38:21.920Z,1019.31
2016-10-08T23:43:18.416Z,1019.24
2016-10-08T23:48:15.838Z,1019.30
2016-10-08T23:53:11.938Z,1019.21
2016-10-08T23:58:08.562Z,1019.25
